Rock Creek, California
Current Conditions -  °F | °C
As of 11:53 AM on Saturday 20 Dec 2014 (Local Time) from KOVE Reporting Station
Overcast Overcast  
Wind Chill: 55°   Ceiling: 1200
Heat Index: 55°   Visibility: 10mi
Dew Point: 50°   Wind: 14mph
Humidity: 83%   Direction: 160°SSE
Pressure: 30.21"   Gusts: NA
Location:  39.9071°N, 121.345°W
Report Text: KOVE 201953Z AUTO 16012KT 10SM BKN012 OVC060 13/10 A3021 RMK AO2 SLP231 T01280100
Loading
Personal Weather Stations






























Interactive Weather Map New forecast layout! Learn more

10-Day Weather Forecast

Advertisements
Track Severe Weather on mobile